createdAt,value
2022-08-26T00:01:00.137Z,21.45
2022-08-26T00:06:01.707Z,21.36
2022-08-26T00:11:04.289Z,21.24
2022-08-26T00:16:09.153Z,21.15
2022-08-26T00:21:13.505Z,21.12
2022-08-26T00:26:15.195Z,21.12
2022-08-26T00:31:16.990Z,21.12
2022-08-26T00:36:20.240Z,21.11
2022-08-26T00:41:22.161Z,21.07
2022-08-26T00:46:28.913Z,21.03
2022-08-26T00:51:31.434Z,21.04
2022-08-26T00:56:42.218Z,21.05
2022-08-26T01:01:44.366Z,20.96
2022-08-26T01:06:50.734Z,20.86
2022-08-26T01:11:55.740Z,20.83
2022-08-26T01:16:57.690Z,20.75
2022-08-26T01:22:05.548Z,20.64
2022-08-26T01:27:09.917Z,20.56
2022-08-26T01:32:15.970Z,20.48
2022-08-26T01:37:22.871Z,20.36
2022-08-26T01:42:27.460Z,20.28
2022-08-26T01:47:35.207Z,20.12
2022-08-26T01:52:41.332Z,19.98
2022-08-26T01:57:47.804Z,19.85
2022-08-26T02:03:11.860Z,19.85
2022-08-26T02:08:24.889Z,19.89
2022-08-26T02:13:30.245Z,19.89
2022-08-26T02:18:35.829Z,19.92
2022-08-26T02:23:43.228Z,19.92
2022-08-26T02:28:49.978Z,19.88
2022-08-26T02:33:51.746Z,19.73
2022-08-26T02:38:53.217Z,19.63
2022-08-26T02:43:57.202Z,19.60
2022-08-26T02:49:01.329Z,19.59
2022-08-26T02:54:02.987Z,19.59
2022-08-26T02:59:06.129Z,19.55
2022-08-26T03:04:10.910Z,19.50
2022-08-26T03:09:18.451Z,19.45
2022-08-26T03:14:21.197Z,19.34
2022-08-26T03:19:25.981Z,19.29
2022-08-26T03:24:27.796Z,19.20
2022-08-26T03:29:49.562Z,19.17
2022-08-26T03:34:53.006Z,19.21
2022-08-26T03:39:54.710Z,19.23
2022-08-26T03:44:57.702Z,19.18
2022-08-26T03:49:59.386Z,19.18
2022-08-26T03:55:01.331Z,19.15
2022-08-26T04:00:10.272Z,19.13
2022-08-26T04:05:17.605Z,19.08
2022-08-26T04:10:28.983Z,18.97
2022-08-26T04:15:31.026Z,18.90
2022-08-26T04:20:32.563Z,18.79
2022-08-26T04:25:34.759Z,18.78
2022-08-26T04:30:37.924Z,18.81
2022-08-26T04:35:40.142Z,18.88
2022-08-26T04:40:46.935Z,18.99
2022-08-26T04:45:50.384Z,19.06
2022-08-26T04:50:53.096Z,19.18
2022-08-26T04:55:55.238Z,19.33
2022-08-26T05:00:57.277Z,19.70
2022-08-26T05:06:00.638Z,20.05
2022-08-26T05:11:04.931Z,19.99
2022-08-26T05:16:11.655Z,20.01
2022-08-26T05:21:22.566Z,20.01
2022-08-26T05:26:28.369Z,20.27
2022-08-26T05:31:31.795Z,22.90
2022-08-26T05:36:35.566Z,25.66
2022-08-26T05:41:40.764Z,27.93
2022-08-26T05:46:44.776Z,29.73
2022-08-26T05:51:47.702Z,31.32
2022-08-26T05:56:52.337Z,32.98
2022-08-26T06:01:55.203Z,34.33
2022-08-26T06:06:57.236Z,35.19
2022-08-26T06:11:58.946Z,36.04
2022-08-26T06:17:00.847Z,37.00
2022-08-26T06:22:23.734Z,37.42
2022-08-26T06:27:27.309Z,34.52
2022-08-26T06:32:32.174Z,32.82
2022-08-26T06:37:33.726Z,35.08
2022-08-26T06:42:38.053Z,36.65
2022-08-26T06:47:44.445Z,37.43
2022-08-26T06:52:52.660Z,37.55
2022-08-26T06:57:57.007Z,34.31
2022-08-26T07:02:58.536Z,30.90
2022-08-26T07:08:00.408Z,28.89
2022-08-26T07:13:02.279Z,31.10
2022-08-26T07:18:07.255Z,31.33
2022-08-26T07:23:11.641Z,31.76
2022-08-26T07:28:13.794Z,33.09
2022-08-26T07:33:15.422Z,32.23
2022-08-26T07:38:17.017Z,32.32
2022-08-26T07:43:18.660Z,32.99
2022-08-26T07:48:23.312Z,32.16
2022-08-26T07:53:24.799Z,35.68
2022-08-26T07:58:26.481Z,35.15
2022-08-26T08:03:28.178Z,34.50
2022-08-26T08:08:32.898Z,34.78
2022-08-26T08:13:34.439Z,35.84
2022-08-26T08:18:36.018Z,39.18
2022-08-26T08:23:37.748Z,40.74
2022-08-26T08:28:39.868Z,41.98
2022-08-26T08:33:43.017Z,42.86
2022-08-26T08:38:45.125Z,42.70
2022-08-26T08:43:47.402Z,39.73
2022-08-26T08:48:58.642Z,38.70
2022-08-26T08:54:02.666Z,41.37
2022-08-26T08:59:24.591Z,39.24
2022-08-26T09:05:04.995Z,38.79
2022-08-26T09:10:15.452Z,39.63
2022-08-26T09:15:28.681Z,40.18
2022-08-26T09:20:53.217Z,40.82
2022-08-26T09:26:01.251Z,40.46
2022-08-26T09:31:13.675Z,40.76
2022-08-26T09:36:24.909Z,41.13
2022-08-26T09:41:35.451Z,41.32
2022-08-26T09:51:50.159Z,40.93
2022-08-26T09:56:52.458Z,40.13
2022-08-26T10:01:54.956Z,40.64
2022-08-26T10:07:06.412Z,39.13
2022-08-26T10:12:16.973Z,37.85
2022-08-26T10:17:34.130Z,37.85
2022-08-26T10:22:50.485Z,37.66
2022-08-26T10:28:18.087Z,38.44
2022-08-26T10:33:20.106Z,39.09
2022-08-26T10:38:31.983Z,39.44
2022-08-26T10:43:55.481Z,38.49
2022-08-26T10:49:10.511Z,39.26
2022-08-26T10:54:19.805Z,39.26
2022-08-26T10:59:37.822Z,39.64
2022-08-26T11:04:59.042Z,39.58
2022-08-26T11:10:10.339Z,38.55
2022-08-26T11:15:24.487Z,37.09
2022-08-26T11:20:47.321Z,35.91
2022-08-26T11:26:01.562Z,34.92
2022-08-26T11:31:08.714Z,34.58
2022-08-26T11:36:27.570Z,34.83
2022-08-26T11:41:31.359Z,34.12
2022-08-26T11:46:37.368Z,34.35
2022-08-26T11:51:40.848Z,34.85
2022-08-26T11:56:46.971Z,34.91
2022-08-26T12:01:51.811Z,34.99
2022-08-26T12:06:53.458Z,35.16
2022-08-26T12:12:16.449Z,35.41
2022-08-26T12:17:26.158Z,35.79
2022-08-26T12:22:40.613Z,35.75
2022-08-26T12:27:53.779Z,35.58
2022-08-26T12:33:22.161Z,35.56
2022-08-26T12:38:34.063Z,35.50
2022-08-26T12:43:44.503Z,35.37
2022-08-26T12:48:49.127Z,35.26
2022-08-26T12:53:51.175Z,35.29
2022-08-26T12:59:17.628Z,35.32
2022-08-26T13:04:40.819Z,35.16
2022-08-26T13:09:42.283Z,35.15
2022-08-26T13:14:44.632Z,35.34
2022-08-26T13:19:46.141Z,35.38
2022-08-26T13:24:48.057Z,35.03
2022-08-26T13:29:51.364Z,34.80
2022-08-26T13:34:55.014Z,34.75
2022-08-26T13:39:56.558Z,34.56
2022-08-26T13:44:59.018Z,34.33
2022-08-26T13:50:00.473Z,34.06
2022-08-26T13:55:02.111Z,34.09
2022-08-26T14:00:05.114Z,34.33
2022-08-26T14:05:07.373Z,34.72
2022-08-26T14:10:09.439Z,34.62
2022-08-26T14:15:11.835Z,34.38
2022-08-26T14:20:17.454Z,34.37
2022-08-26T14:25:19.899Z,34.45
2022-08-26T14:30:21.873Z,34.25
2022-08-26T14:35:27.676Z,34.03
2022-08-26T14:40:31.578Z,33.82
2022-08-26T14:50:43.375Z,33.08
2022-08-26T14:55:46.008Z,32.73
2022-08-26T15:00:47.921Z,32.48
2022-08-26T15:05:49.493Z,32.25
2022-08-26T15:10:51.618Z,31.80
2022-08-26T15:15:53.490Z,31.53
2022-08-26T15:20:55.743Z,31.38
2022-08-26T15:25:57.550Z,31.32
2022-08-26T15:31:00.802Z,31.25
2022-08-26T15:36:04.590Z,31.40
2022-08-26T15:41:08.676Z,31.40
2022-08-26T15:46:11.856Z,31.26
2022-08-26T15:51:26.247Z,31.02
2022-08-26T15:56:31.020Z,30.79
2022-08-26T16:01:32.767Z,30.70
2022-08-26T16:06:36.702Z,30.71
2022-08-26T16:11:38.485Z,30.72
2022-08-26T16:16:41.799Z,30.71
2022-08-26T16:21:43.317Z,30.56
2022-08-26T16:26:45.276Z,30.44
2022-08-26T16:31:47.655Z,30.30
2022-08-26T16:36:49.194Z,30.06
2022-08-26T16:41:50.668Z,29.76
2022-08-26T16:46:55.992Z,29.51
2022-08-26T16:52:00.280Z,29.37
2022-08-26T16:57:02.563Z,29.27
2022-08-26T17:02:05.073Z,29.13
2022-08-26T17:07:06.959Z,28.95
2022-08-26T17:12:08.984Z,28.67
2022-08-26T17:17:11.949Z,27.36
2022-08-26T17:22:13.480Z,26.31
2022-08-26T17:27:15.285Z,25.91
2022-08-26T17:32:16.738Z,25.25
2022-08-26T17:37:18.234Z,24.79
2022-08-26T17:42:19.869Z,24.23
2022-08-26T17:47:21.319Z,23.27
2022-08-26T17:52:23.109Z,22.28
2022-08-26T17:57:26.130Z,21.48
2022-08-26T18:07:33.509Z,21.30
2022-08-26T18:12:43.239Z,21.30
2022-08-26T18:17:44.826Z,21.40
2022-08-26T18:22:47.793Z,21.70
2022-08-26T18:27:49.439Z,22.06
2022-08-26T18:32:52.084Z,22.41
2022-08-26T18:37:53.872Z,22.63
2022-08-26T18:42:55.342Z,22.84
2022-08-26T18:47:57.396Z,22.96
2022-08-26T18:52:58.821Z,22.98
2022-08-26T18:58:00.281Z,22.63
2022-08-26T19:03:01.829Z,22.57
2022-08-26T19:08:03.514Z,22.35
2022-08-26T19:13:09.632Z,22.13
2022-08-26T19:18:14.443Z,22.10
2022-08-26T19:23:30.997Z,22.18
2022-08-26T19:28:34.245Z,22.41
2022-08-26T19:33:37.992Z,22.45
2022-08-26T19:38:39.485Z,22.59
2022-08-26T19:43:41.613Z,22.71
2022-08-26T19:48:44.409Z,22.82
2022-08-26T19:53:47.946Z,22.85
2022-08-26T19:58:50.643Z,22.87
2022-08-26T20:03:52.459Z,22.86
2022-08-26T20:08:54.097Z,22.84
2022-08-26T20:13:59.043Z,22.79
2022-08-26T20:19:18.813Z,22.85
2022-08-26T20:24:21.090Z,22.83
2022-08-26T20:29:22.623Z,22.55
2022-08-26T20:34:24.636Z,22.26
2022-08-26T20:39:29.509Z,22.30
2022-08-26T20:44:30.939Z,22.37
2022-08-26T20:49:32.437Z,22.40
2022-08-26T20:54:36.390Z,22.36
2022-08-26T20:59:37.847Z,22.36
2022-08-26T21:04:40.424Z,22.28
2022-08-26T21:09:42.013Z,22.35
2022-08-26T21:14:47.725Z,22.35
2022-08-26T21:19:51.217Z,22.19
2022-08-26T21:24:52.672Z,21.94
2022-08-26T21:29:55.635Z,21.98
2022-08-26T21:34:59.169Z,22.14
2022-08-26T21:40:05.228Z,22.09
2022-08-26T21:45:07.419Z,21.96
2022-08-26T21:50:09.229Z,21.84
2022-08-26T21:55:11.769Z,21.84
2022-08-26T22:00:15.744Z,21.84
2022-08-26T22:05:17.253Z,21.84
2022-08-26T22:10:18.862Z,21.95
2022-08-26T22:15:23.178Z,21.94
2022-08-26T22:20:24.703Z,21.83
2022-08-26T22:25:26.827Z,21.85
2022-08-26T22:30:28.469Z,21.97
2022-08-26T22:35:30.979Z,21.96
2022-08-26T22:40:33.831Z,22.00
2022-08-26T22:45:44.148Z,21.96
2022-08-26T22:50:47.443Z,21.87
2022-08-26T22:55:49.470Z,21.80
2022-08-26T23:00:50.969Z,21.70
2022-08-26T23:05:56.056Z,21.80
2022-08-26T23:10:57.508Z,21.88
2022-08-26T23:16:03.932Z,21.87
2022-08-26T23:21:06.198Z,21.92
2022-08-26T23:26:08.294Z,21.98
2022-08-26T23:31:09.755Z,22.05
2022-08-26T23:36:14.619Z,22.09
2022-08-26T23:41:22.327Z,22.14
2022-08-26T23:46:23.817Z,22.13
2022-08-26T23:51:44.271Z,22.04
2022-08-26T23:56:47.557Z,21.95
